Sierra Nevada Aquatic Research Lab (SNARL) Reserve, California Weather observations

Data are for 10 minute period ending at time listed.
 Day   Time   Solar   Ave.   Ave.  Ave.  Vector  Max.   Baro.   Total    
  of    of     Rad.   Air    Rel.  Wind   Wind   Wind  Press.  Precip.   
Year   Day            Temp.  Hum.  Speed  Dir.   Gust                    
2016   (PST)  Kw/m2    F      %     mph   deg.    mph    mb.     in.     
-------------------------------------------------------------------------
 344   16:00   0.01   45.4    43   10.4   271    15.9   786.5    0.00 
 344   16:10   0.02   45.1    40    9.4   258    16.6   786.3    0.00 
 344   16:20   0.01   47.1    29   11.2   238    18.3   786.3    0.00 
 344   16:30   0.01   44.9    42    9.8   270    15.2   786.4    0.00 
 344   16:40   0.00   43.1    47    7.6   278    13.9   786.5    0.00 
 344   16:50   0.00   41.6    50    5.5   323    11.2   786.6    0.00 
 344   17:00   0.00   40.0    52    3.1   323     7.0   786.7    0.00 
 344   17:10   0.00   38.4    54    3.9   344     8.6   786.8    0.00 
 344   17:20   0.00   38.5    54    5.4   277    10.2   786.8    0.00 
 344   17:30   0.00   39.6    54    8.5   292    13.4   786.9    0.00 
 344   17:40   0.00   40.3    52    7.1   289    11.2   786.9    0.00 
 344   17:50   0.00   40.5    52    5.8   279    10.7   786.8    0.00 
 344   18:00   0.00   38.1    56    2.0    94     6.4   786.8    0.00 
 344   18:10   0.00   36.5    58    2.4   156     6.1   786.9    0.00 
 344   18:20   0.00   34.9    60    3.3   166     6.1   787.0    0.00 
 344   18:30   0.00   34.7    60    2.3   208     5.3   787.0    0.00 
 344   18:40   0.00   35.1    59    3.3   245     6.8   786.9    0.00 
 344   18:50   0.00   35.6    59    3.6   214     5.8   786.9    0.00 
 344   19:00   0.00   34.9    60    4.5   246     7.4   787.0    0.00 
 344   19:10   0.00   34.2    62    5.6   261    10.2   787.0    0.00 
 344   19:20   0.00   34.8    61    5.4   249     7.7   787.1    0.00 
 344   19:30   0.00   34.6    60    4.3   216     6.9   787.1    0.00 
 344   19:40   0.00   34.1    62    3.5   235     6.3   787.1    0.00 
 344   19:50   0.00   33.2    63    1.8   301     6.0   787.2    0.00 
 344   20:00   0.00   33.4    63    2.9   299     5.2   787.4    0.00 
 344   20:10   0.00   32.1    66    3.6   140     8.0   787.4    0.00 
 344   20:20   0.00   31.5    67    2.5   206     6.5   787.2    0.00 
 344   20:30   0.00   29.9    69    2.9   111     6.7   787.2    0.00 
 344   20:40   0.00   29.4    69    2.2   275     5.2   787.4    0.00 
 344   20:50   0.00   28.6    71    2.9   220     7.2   787.4    0.00 
 344   21:00   0.00   29.2    69    1.7   150     4.6   787.3    0.00 
 344   21:10   0.00   28.6    71    3.0   335     9.6   787.1    0.00 
 344   21:20   0.00   30.6    68    4.2   248    11.8   787.3    0.00 
 344   21:30   0.00   32.4    64    3.8   173     7.2   787.4    0.00 
 344   21:40   0.00   31.3    65    2.5   188     5.9   787.3    0.00 
 344   21:50   0.00   30.8    66    1.4    83     4.8   787.1    0.00 
 344   22:00   0.00   31.1    65    3.6     4    10.3   787.0    0.00 
 344   22:10   0.00   32.5    62    3.3    63     6.5   787.1    0.00 
 344   22:20   0.00   33.5    61    4.7    32     8.1   787.2    0.00 
 344   22:30   0.00   34.1    60    3.0    11     9.1   787.0    0.00 
 344   22:40   0.00   34.5    59    3.9    47     7.5   786.9    0.00 
 344   22:50   0.00   34.5    59    4.2    26     7.4   786.9    0.00 
 344   23:00   0.00   34.1    60    2.7    93     6.6   786.9    0.00 
 344   23:10   0.00   34.1    59    4.8    86     9.9   786.6    0.00 
 344   23:20   0.00   34.1    59    4.2   347     9.1   786.6    0.00 
 344   23:30   0.00   34.7    58    4.0    14     7.2   786.5    0.00 
 344   23:40   0.00   35.4    55    2.7    32     7.2   786.4    0.00 
 344   23:50   0.00   37.1    57    6.8   213    17.9   786.5    0.00 
 345    0:00   0.00   44.5    52    9.7   230    19.1   786.4    0.00 
 345    0:10   0.00   45.3    52    7.0   211    19.3   786.2    0.00 
 345    0:20   0.00   46.0    50    7.6   211    22.5   786.1    0.00 
 345    0:30   0.00   46.0    53    9.4   218    22.0   786.0    0.00 
 345    0:40   0.00   46.1    55   13.0   225    21.9   785.8    0.00 
 345    0:50   0.00   45.7    55    7.1   248    17.8   785.7    0.00 
 345    1:00   0.00   46.3    54    7.6   248    23.5   785.7    0.00 
 345    1:10   0.00   44.7    57    5.9   357    13.2   785.7    0.00 
 345    1:20   0.00   41.3    59    4.7    52     6.9   785.6    0.00 
 345    1:30   0.00   38.8    61    5.5    23     8.3   785.5    0.00 
 345    1:40   0.00   38.5    63    3.8    87     8.0   785.4    0.00 
 345    1:50   0.00   38.8    63    4.7    43    10.2   785.2    0.00 
 345    2:00   0.00   40.3    64    7.7   191    21.6   785.0    0.00 
 345    2:10   0.00   46.8    57   10.6   217    22.7   784.8    0.00 
 345    2:20   0.00   47.8    55    8.2   238    24.3   784.9    0.00 
 345    2:30   0.00   48.0    56    9.8   240    23.0   784.8    0.00 
 345    2:40   0.00   47.4    61    7.1   247    20.9   784.8    0.00 
 345    2:50   0.00   47.1    60    5.5   250    15.5   784.8    0.00 
 345    3:00   0.00   47.7    56    5.5    36    15.3   784.4    0.00 
 345    3:10   0.00   47.6    57    5.5    50    20.2   784.3    0.00 
 345    3:20   0.00   48.3    56    6.9   241    20.8   784.3    0.00 
 345    3:30   0.00   48.1    58    4.3   303    10.4   784.4    0.00 
 345    3:40   0.00   47.8    58    7.9   231    26.5   784.4    0.00 
 345    3:50   0.00   47.9    57    8.8   241    29.0   784.2    0.00 
 345    4:00   0.00   48.0    57   13.4   238    26.4   784.0    0.00 
 345    4:10   0.00   47.8    57   12.9   242    23.2   784.0    0.00 
 345    4:20   0.00   47.9    55   15.2   235    29.1   784.0    0.00 
 345    4:30   0.00   47.9    54   14.9   232    34.6   783.9    0.00 
 345    4:40   0.00   47.7    54   14.2   222    29.0   783.8    0.00 
 345    4:50   0.00   47.3    56   16.1   236    28.5   783.8    0.00 
 345    5:00   0.00   47.2    56   12.5   234    21.3   783.7    0.00 
 345    5:10   0.00   47.5    53   10.0   235    26.1   783.5    0.00 
 345    5:20   0.00   48.1    51   14.9   226    29.9   783.4    0.00 
 345    5:30   0.00   48.2    52   12.4   242    27.9   783.6    0.00 
 345    5:40   0.00   48.3    52   14.4   228    35.3   783.4    0.00 
 345    5:50   0.00   48.2    53   18.5   219    31.8   783.5    0.00 
 345    6:00   0.00   48.1    51   13.6   224    25.1   783.4    0.00 
 345    6:10   0.00   48.1    52   10.8   234    23.6   783.7    0.00 
 345    6:20   0.00   48.3    52    9.6   252    18.6   783.7    0.00 
 345    6:30   0.00   48.3    52   13.8   238    29.2   783.6    0.00 
 345    6:40   0.00   48.0    50   21.9   218    41.4   783.4    0.00 
 345    6:50   0.00   47.6    51   19.0   226    36.4   783.2    0.00 
 345    7:00   0.00   47.6    49   18.1   246    35.1   783.6    0.00 
 345    7:10   0.00   47.8    44   11.8   238    22.6   783.7    0.00 
 345    7:20   0.00   47.7    43   16.1   227    37.2   783.4    0.00 
 345    7:30   0.01   47.8    41   20.1   225    42.2   783.3    0.00 
 345    7:40   0.01   47.4    40   24.1   209    41.2   783.2    0.00 
 345    7:50   0.02   47.4    38   28.9   205    50.1   783.0    0.00 
 345    8:00   0.10   47.4    39   31.9   208    55.7   783.1    0.00 
 345    8:10   0.12   47.6    39   31.2   206    53.2   783.1    0.00 
 345    8:20   0.19   47.8    44   32.4   203    60.2   783.3    0.00 
 345    8:30   0.21   48.1    44   31.8   201    53.2   783.5    0.00 
 345    8:40   0.14   48.2    43   32.2   207    57.4   783.4    0.00 
 345    8:50   0.13   47.6    44   27.2   204    48.5   783.7    0.00 
 345    9:00   0.22   48.5    43   27.7   203    51.2   783.7    0.00 
 345    9:10   0.27   48.8    44   28.4   202    44.2   783.6    0.00 
 345    9:20   0.30   49.5    41   33.1   203    57.0   783.6    0.00 
 345    9:30   0.37   50.1    40   31.3   197    51.4   783.8    0.00 
 345    9:40   0.39   50.5    40   31.4   203    44.2   783.7    0.00 
 345    9:50   0.38   49.2    48   34.1   203    48.2   783.6    0.00 
 345   10:00   0.40   47.2    57   33.0   206    47.2   783.9    0.00 
 345   10:10   0.39   47.3    56   34.5   202    53.0   783.8    0.00 
 345   10:20   0.40   46.8    59   31.9   208    51.1   783.8    0.00 
 345   10:30   0.44   48.2    50   28.8   210    50.2   783.9    0.00 
 345   10:40   0.38   48.5    50   27.6   216    45.4   783.7    0.00 
 345   10:50   0.43   46.6    57   30.8   211    46.3   783.5    0.00 
 345   11:00   0.36   46.5    57   30.8   210    50.9   783.5    0.00 
 345   11:10   0.48   47.2    55   20.0   218    42.5   783.8    0.00 
 345   11:20   0.51   50.3    45   21.5   210    41.0   783.6    0.00 
 345   11:30   0.45   50.6    44   30.2   211    46.3   782.9    0.00 
 345   11:40   0.47   50.2    43   25.8   214    41.7   782.7    0.00 
 345   11:50   0.49   50.5    43   28.4   212    43.0   782.6    0.00 
 345   12:00   0.47   50.3    44   21.0   211    37.8   782.5    0.00 
 345   12:10   0.42   50.3    47   21.1   210    34.6   782.4    0.00 
 345   12:20   0.45   50.3    47   20.2   206    42.3   782.8    0.00 
 345   12:30   0.33   50.1    47   14.4   210    26.0   782.8    0.00 
 345   12:40   0.40   49.7    50   18.6   208    32.7   782.7    0.00 
 345   12:50   0.29   50.1    49   13.8   223    26.7   782.7    0.00 
 345   13:00   0.16   48.2    53   18.7   206    31.9   782.3    0.00 
 345   13:10   0.27   47.5    55   18.9   200    29.7   782.1    0.00 
 345   13:20   0.45   47.9    54   16.9   233    34.3   782.5    0.00 
 345   13:30   0.34   49.2    50    8.8   234    25.2   782.4    0.00 
 345   13:40   0.24   48.5    53   18.3   208    31.6   781.8    0.00 
 345   13:50   0.34   49.1    51   13.0   222    27.0   781.7    0.00 
 345   14:00   0.23   50.0    48   10.9   227    26.0   781.4    0.00 
 345   14:10   0.12   49.6    49   13.0   212    26.2   781.3    0.00 
 345   14:20   0.17   48.8    52   17.0   207    28.9   781.6    0.00 
 345   14:30   0.13   48.8    52   21.5   210    32.5   782.1    0.00 
 345   14:40   0.10   47.3    59   25.9   200    40.1   781.4    0.00 
 345   14:50   0.07   46.5    61   20.8   201    35.2   780.9    0.00 
 345   15:00   0.07   47.9    56   19.7   210    38.1   781.1    0.00 
 345   15:10   0.07   49.1    53   13.3   215    33.8   781.5    0.00 
 345   15:20   0.06   48.5    57   14.8   209    30.7   781.8    0.00 
 345   15:30   0.05   47.7    57   16.0   216    35.6   781.9    0.00 
 345   15:40   0.05   47.7    56    9.0   243    19.1   782.1    0.00 
 345   15:50   0.04   47.6    55   15.1   229    31.9   782.3    0.00 

Return to SNARL Reserve graphs page.


Western Regional Climate Center,wrcc@dri.edu